EDLI 071815Z 08001KT 9999 09/08 Q1019

Wind aktuell: 080° mit 1 kt

Wind 10 Minuten extrem:

040° bis 140° mit 1 kt bis 1 kt

Seitenwindkomponente: -0.3 kt

Wolkengrenze 1: keine

Wolkengrenze 2: keine

Wolkengrenze 3: keine

Sichtweite: 20.000 Meter

Vorheriges Wetter:

Aktuelles Wetter:

Temperatur: 8.9 °C

Taupunkt: 8.3 °C

Luftfeuchtigkeit: 95%

QNH: 1019 hPa 

QFE: 1002 hPa